Williamsburg, New Mexico
Current Conditions -  °F | °C
As of 12:53 PM on Thursday 29 Jan 2015 (Local Time) from KTCS Reporting Station
Scattered Clouds Scattered Clouds  
Wind Chill: 58°   Ceiling: Unl
Heat Index: 58°   Visibility: 10mi
Dew Point: 31°   Wind: 18mph
Humidity: 36%   Direction: 10°N
Pressure: 30.31"   Gusts: 25mph
Location:  33.12°N, 107.29°W
Report Text: KTCS 291953Z AUTO 01016G22KT 10SM SCT120 14/M01 A3031 RMK AO2 SLP221 T01441006 TSNO
Loading
Personal Weather Stations






























Interactive Weather Map New forecast layout! Learn more

10-Day Weather Forecast

Advertisements
Track Severe Weather on mobile